AGGM

Munda Airport

Solomon Islands
TAF AGGM 160510Z 1606/1706 05008KT 9999 -SHDZ FEW017 BKN100 PROB40 INTER 1606/1612 5000 TSSH BKN016 FEW018CB Q 1008 1010 1011 1009
Issued Valid From Valid To
Oct-16 @ 05:10 UTC
(42 minutes ago)
Oct-16 @ 06:00 UTC
(in 8 minutes)
Oct-17 @ 06:00 UTC
(in 24 hours)
Oct-16 @ 06:00 to Oct-17 @ 06:00
TAF AGGM 160510Z 1606/1706 05008KT 9999 -SHDZ FEW017 BKN100
Wind Visibility Clouds Conditions
50° at 8 knots 10,000+ meters
  • Few at 1,700' AGL
  • Broken at 10,000' AGL
  • Light Drizzle
Temporary  (Probability 40%) Oct-16 @ 06:00 to Oct-16 @ 12:00
PROB40 INTER 1606/1612 5000 TSSH BKN016 FEW018CB Q 1008 1010 1011 1009
Visibility Clouds Conditions
5,005 meters
  • Broken at 1,600' AGL
  • Few at 1,800' AGL
  • Thunderstorm
TAF AGGM 160510Z 1606/1706 05008KT 9999 -SHDZ FEW017 BKN100 PROB40 INTER 1606/1612 5000 TSSH BKN016 FEW018CB Q 1008 1010 1011 1009
Issued Oct-16 @ 05:10 UTC
(42 minutes ago)
Valid From Oct-16 @ 06:00 UTC
(in 8 minutes)
Valid To Oct-17 @ 06:00 UTC
(in 24 hours)
Oct-16 @ 06:00 - Oct-17 @ 06:00
Wind Visibility
50° at 8 knots 10,000+ meters
Clouds
  • Few at 1,700' AGL
  • Broken at 10,000' AGL
Conditions
  • Light Drizzle
Probability 40% Temporary Oct-16 @ 06:00 - Oct-16 @ 12:00
Clouds
  • Broken at 1,600' AGL
  • Few at 1,800' AGL
Conditions
  • Thunderstorm